sensor_id;sensor_type;location;lat;lon;timestamp;pressure;altitude;pressure_sealevel;temperature;humidity
17525;BME280;40431;52.198;9.902;2024-03-07T00:02:01;101758.44;;;2.48;100.00
17525;BME280;40431;52.198;9.902;2024-03-07T00:04:44;101748.63;;;2.50;100.00
17525;BME280;40431;52.198;9.902;2024-03-07T00:07:14;101758.38;;;2.56;100.00
17525;BME280;40431;52.198;9.902;2024-03-07T00:09:47;101758.41;;;2.53;100.00
17525;BME280;40431;52.198;9.902;2024-03-07T00:12:26;101757.56;;;2.49;100.00
17525;BME280;40431;52.198;9.902;2024-03-07T00:14:57;101762.97;;;2.41;100.00
17525;BME280;40431;52.198;9.902;2024-03-07T00:17:31;101752.38;;;2.29;100.00
17525;BME280;40431;52.198;9.902;2024-03-07T00:20:06;101755.97;;;2.25;100.00
17525;BME280;40431;52.198;9.902;2024-03-07T00:22:44;101760.34;;;2.32;100.00
17525;BME280;40431;52.198;9.902;2024-03-07T00:25:15;101761.25;;;2.31;100.00
17525;BME280;40431;52.198;9.902;2024-03-07T00:27:49;101753.28;;;2.22;100.00
17525;BME280;40431;52.198;9.902;2024-03-07T00:30:26;101754.19;;;2.24;100.00
17525;BME280;40431;52.198;9.902;2024-03-07T00:32:57;101758.59;;;2.28;100.00
17525;BME280;40431;52.198;9.902;2024-03-07T00:35:30;101749.75;;;2.16;100.00
17525;BME280;40431;52.198;9.902;2024-03-07T00:38:06;101755.09;;;2.18;100.00
17525;BME280;40431;52.198;9.902;2024-03-07T00:40:35;101750.72;;;2.08;100.00
17525;BME280;40431;52.198;9.902;2024-03-07T00:43:09;101753.41;;;2.03;100.00
17525;BME280;40431;52.198;9.902;2024-03-07T00:45:41;101748.03;;;2.05;100.00
17525;BME280;40431;52.198;9.902;2024-03-07T00:48:10;101756.06;;;2.08;100.00
17525;BME280;40431;52.198;9.902;2024-03-07T00:50:48;101754.25;;;2.11;100.00
17525;BME280;40431;52.198;9.902;2024-03-07T00:53:19;101733.81;;;1.98;100.00
17525;BME280;40431;52.198;9.902;2024-03-07T00:55:54;101738.34;;;1.90;100.00
17525;BME280;40431;52.198;9.902;2024-03-07T00:58:34;101741.00;;;1.94;100.00
17525;BME280;40431;52.198;9.902;2024-03-07T01:01:07;101748.13;;;1.94;100.00
17525;BME280;40431;52.198;9.902;2024-03-07T01:03:37;101744.56;;;1.95;100.00
17525;BME280;40431;52.198;9.902;2024-03-07T01:06:09;101744.56;;;1.95;100.00
17525;BME280;40431;52.198;9.902;2024-03-07T01:08:50;101746.31;;;1.99;100.00
17525;BME280;40431;52.198;9.902;2024-03-07T01:11:21;101741.88;;;1.95;100.00
17525;BME280;40431;52.198;9.902;2024-03-07T01:13:49;101740.97;;;1.93;100.00
17525;BME280;40431;52.198;9.902;2024-03-07T01:16:18;101748.09;;;2.00;100.00
17525;BME280;40431;52.198;9.902;2024-03-07T01:18:52;101739.22;;;1.89;100.00
17525;BME280;40431;52.198;9.902;2024-03-07T01:21:33;101744.59;;;1.92;100.00
17525;BME280;40431;52.198;9.902;2024-03-07T01:24:03;101745.50;;;1.83;100.00
17525;BME280;40431;52.198;9.902;2024-03-07T01:26:32;101747.25;;;1.89;100.00
17525;BME280;40431;52.198;9.902;2024-03-07T01:29:10;101750.84;;;1.86;100.00
17525;BME280;40431;52.198;9.902;2024-03-07T01:31:43;101738.38;;;1.82;100.00
17525;BME280;40431;52.198;9.902;2024-03-07T01:34:19;101738.44;;;1.73;100.00
17525;BME280;40431;52.198;9.902;2024-03-07T01:36:50;101749.16;;;1.74;100.00
17525;BME280;40431;52.198;9.902;2024-03-07T01:39:28;101740.25;;;1.71;100.00
17525;BME280;40431;52.198;9.902;2024-03-07T01:42:08;101734.91;;;1.67;100.00
17525;BME280;40431;52.198;9.902;2024-03-07T01:44:35;101737.56;;;1.69;100.00
17525;BME280;40431;52.198;9.902;2024-03-07T01:47:02;101746.44;;;1.73;100.00
17525;BME280;40431;52.198;9.902;2024-03-07T01:49:29;101744.69;;;1.73;100.00
17525;BME280;40431;52.198;9.902;2024-03-07T01:51:55;101748.22;;;1.74;100.00
17525;BME280;40431;52.198;9.902;2024-03-07T01:54:23;101753.56;;;1.78;100.00
17525;BME280;40431;52.198;9.902;2024-03-07T01:56:50;101746.41;;;1.85;100.00
17525;BME280;40431;52.198;9.902;2024-03-07T01:59:18;101738.38;;;1.80;100.00
17525;BME280;40431;52.198;9.902;2024-03-07T02:01:45;101742.88;;;1.78;100.00
17525;BME280;40431;52.198;9.902;2024-03-07T02:04:12;101741.94;;;1.84;100.00
17525;BME280;40431;52.198;9.902;2024-03-07T02:06:39;101753.47;;;1.94;100.00
17525;BME280;40431;52.198;9.902;2024-03-07T02:09:07;101742.78;;;1.91;100.00
17525;BME280;40431;52.198;9.902;2024-03-07T02:11:36;101739.25;;;1.90;100.00
17525;BME280;40431;52.198;9.902;2024-03-07T02:14:02;101744.59;;;1.90;100.00
17525;BME280;40431;52.198;9.902;2024-03-07T02:16:29;101739.22;;;1.92;100.00
17525;BME280;40431;52.198;9.902;2024-03-07T02:18:55;101741.88;;;1.95;100.00
17525;BME280;40431;52.198;9.902;2024-03-07T02:21:24;101746.31;;;1.99;100.00
17525;BME280;40431;52.198;9.902;2024-03-07T02:23:50;101738.28;;;1.97;100.00
17525;BME280;40431;52.198;9.902;2024-03-07T02:26:16;101726.81;;;1.81;100.00
17525;BME280;40431;52.198;9.902;2024-03-07T02:28:43;101730.34;;;1.87;100.00
17525;BME280;40431;52.198;9.902;2024-03-07T02:31:10;101731.22;;;1.92;100.00
17525;BME280;40431;52.198;9.902;2024-03-07T02:33:37;101729.44;;;1.88;100.00
17525;BME280;40431;52.198;9.902;2024-03-07T02:36:04;101724.09;;;1.89;100.00
17525;BME280;40431;52.198;9.902;2024-03-07T02:38:31;101720.56;;;1.82;100.00
17525;BME280;40431;52.198;9.902;2024-03-07T02:40:59;101720.56;;;1.79;100.00
17525;BME280;40431;52.198;9.902;2024-03-07T02:43:26;101723.22;;;1.79;100.00
17525;BME280;40431;52.198;9.902;2024-03-07T02:45:52;101715.22;;;1.79;100.00
17525;BME280;40431;52.198;9.902;2024-03-07T02:48:20;101719.66;;;1.87;100.00
17525;BME280;40431;52.198;9.902;2024-03-07T02:50:46;101721.38;;;1.94;100.00
17525;BME280;40431;52.198;9.902;2024-03-07T02:53:12;101713.28;;;2.02;100.00
17525;BME280;40431;52.198;9.902;2024-03-07T02:55:40;101714.22;;;1.93;100.00
17525;BME280;40431;52.198;9.902;2024-03-07T02:58:07;101710.78;;;1.75;100.00
17525;BME280;40431;52.198;9.902;2024-03-07T03:00:33;101712.56;;;1.78;100.00
17525;BME280;40431;52.198;9.902;2024-03-07T03:03:00;101715.22;;;1.82;100.00
17525;BME280;40431;52.198;9.902;2024-03-07T03:05:26;101716.09;;;1.83;100.00
17525;BME280;40431;52.198;9.902;2024-03-07T03:07:52;101710.72;;;1.88;100.00
17525;BME280;40431;52.198;9.902;2024-03-07T03:10:20;101716.94;;;1.94;100.00
17525;BME280;40431;52.198;9.902;2024-03-07T03:12:52;101710.66;;;1.97;100.00
17525;BME280;40431;52.198;9.902;2024-03-07T03:15:19;101701.72;;;1.98;100.00
17525;BME280;40431;52.198;9.902;2024-03-07T03:17:46;101702.69;;;1.91;100.00
17525;BME280;40431;52.198;9.902;2024-03-07T03:20:13;101704.53;;;1.81;100.00
17525;BME280;40431;52.198;9.902;2024-03-07T03:22:50;101700.09;;;1.78;100.00
17525;BME280;40431;52.198;9.902;2024-03-07T03:25:16;101703.66;;;1.77;100.00
17525;BME280;40431;52.198;9.902;2024-03-07T03:27:43;101698.34;;;1.74;100.00
17525;BME280;40431;52.198;9.902;2024-03-07T03:30:11;101701.88;;;1.75;100.00
17525;BME280;40431;52.198;9.902;2024-03-07T03:32:39;101708.97;;;1.83;100.00
17525;BME280;40431;52.198;9.902;2024-03-07T03:35:07;101708.94;;;1.87;100.00
17525;BME280;40431;52.198;9.902;2024-03-07T03:37:38;101700.03;;;1.88;100.00
17525;BME280;40431;52.198;9.902;2024-03-07T03:40:06;101700.00;;;1.86;100.00
17525;BME280;40431;52.198;9.902;2024-03-07T03:42:34;101705.38;;;1.86;100.00
17525;BME280;40431;52.198;9.902;2024-03-07T03:45:01;101700.91;;;1.87;100.00
17525;BME280;40431;52.198;9.902;2024-03-07T03:47:30;101704.50;;;1.86;100.00
17525;BME280;40431;52.198;9.902;2024-03-07T03:49:56;101696.50;;;1.82;100.00
17525;BME280;40431;52.198;9.902;2024-03-07T03:52:22;101706.28;;;1.82;100.00
17525;BME280;40431;52.198;9.902;2024-03-07T03:54:49;101701.78;;;1.87;100.00
17525;BME280;40431;52.198;9.902;2024-03-07T03:57:15;101707.09;;;1.95;100.00
17525;BME280;40431;52.198;9.902;2024-03-07T03:59:43;101701.72;;;2.01;100.00
17525;BME280;40431;52.198;9.902;2024-03-07T04:02:10;101701.72;;;1.99;100.00
17525;BME280;40431;52.198;9.902;2024-03-07T04:04:40;101704.41;;;1.98;100.00
17525;BME280;40431;52.198;9.902;2024-03-07T04:07:06;101699.06;;;1.99;100.00
17525;BME280;40431;52.198;9.902;2024-03-07T04:09:32;101694.59;;;1.98;100.00
17525;BME280;40431;52.198;9.902;2024-03-07T04:11:59;101701.72;;;2.01;100.00
17525;BME280;40431;52.198;9.902;2024-03-07T04:14:26;101705.25;;;2.03;100.00
17525;BME280;40431;52.198;9.902;2024-03-07T04:16:52;101708.78;;;2.08;100.00
17525;BME280;40431;52.198;9.902;2024-03-07T04:19:22;101705.19;;;2.15;100.00
17525;BME280;40431;52.198;9.902;2024-03-07T04:21:50;101699.81;;;2.19;100.00
17525;BME280;40431;52.198;9.902;2024-03-07T04:24:16;101699.84;;;2.15;100.00
17525;BME280;40431;52.198;9.902;2024-03-07T04:26:43;101697.97;;;2.24;100.00
17525;BME280;40431;52.198;9.902;2024-03-07T04:29:09;101697.97;;;2.24;100.00
17525;BME280;40431;52.198;9.902;2024-03-07T04:31:36;101692.66;;;2.22;100.00
17525;BME280;40431;52.198;9.902;2024-03-07T04:34:02;101696.13;;;2.27;100.00
17525;BME280;40431;52.198;9.902;2024-03-07T04:36:29;101697.94;;;2.27;100.00
17525;BME280;40431;52.198;9.902;2024-03-07T04:38:59;101695.31;;;2.22;100.00
17525;BME280;40431;52.198;9.902;2024-03-07T04:41:25;101695.31;;;2.21;100.00
17525;BME280;40431;52.198;9.902;2024-03-07T04:43:51;101698.88;;;2.21;100.00
17525;BME280;40431;52.198;9.902;2024-03-07T04:46:19;101690.84;;;2.23;100.00
17525;BME280;40431;52.198;9.902;2024-03-07T04:48:46;101694.41;;;2.25;100.00
17525;BME280;40431;52.198;9.902;2024-03-07T04:51:12;101702.41;;;2.28;100.00
17525;BME280;40431;52.198;9.902;2024-03-07T04:53:39;101699.69;;;2.34;100.00
17525;BME280;40431;52.198;9.902;2024-03-07T04:56:08;101702.31;;;2.37;100.00
17525;BME280;40431;52.198;9.902;2024-03-07T04:58:35;101700.53;;;2.36;100.00
17525;BME280;40431;52.198;9.902;2024-03-07T05:01:02;101701.44;;;2.38;100.00
17525;BME280;40431;52.198;9.902;2024-03-07T05:03:29;101701.44;;;2.38;100.00
17525;BME280;40431;52.198;9.902;2024-03-07T05:05:55;101708.56;;;2.41;100.00
17525;BME280;40431;52.198;9.902;2024-03-07T05:08:22;101709.38;;;2.44;100.00
17525;BME280;40431;52.198;9.902;2024-03-07T05:10:49;101706.69;;;2.46;100.00
17525;BME280;40431;52.198;9.902;2024-03-07T05:13:18;101704.03;;;2.47;100.00
17525;BME280;40431;52.198;9.902;2024-03-07T05:15:45;101704.91;;;2.48;100.00
17525;BME280;40431;52.198;9.902;2024-03-07T05:18:12;101700.47;;;2.45;100.00
17525;BME280;40431;52.198;9.902;2024-03-07T05:20:39;101704.91;;;2.46;100.00
17525;BME280;40431;52.198;9.902;2024-03-07T05:23:06;101694.22;;;2.43;100.00
17525;BME280;40431;52.198;9.902;2024-03-07T05:25:32;101699.56;;;2.46;100.00
17525;BME280;40431;52.198;9.902;2024-03-07T05:27:59;101707.56;;;2.49;100.00
17525;BME280;40431;52.198;9.902;2024-03-07T05:30:29;101709.38;;;2.49;100.00
17525;BME280;40431;52.198;9.902;2024-03-07T05:32:56;101704.00;;;2.49;100.00
17525;BME280;40431;52.198;9.902;2024-03-07T05:35:23;101711.97;;;2.54;100.00
17525;BME280;40431;52.198;9.902;2024-03-07T05:37:50;101710.19;;;2.56;100.00
17525;BME280;40431;52.198;9.902;2024-03-07T05:40:16;101704.88;;;2.51;100.00
17525;BME280;40431;52.198;9.902;2024-03-07T05:42:43;101711.97;;;2.54;100.00
17525;BME280;40431;52.198;9.902;2024-03-07T05:45:09;101711.09;;;2.53;100.00
17525;BME280;40431;52.198;9.902;2024-03-07T05:47:37;101720.91;;;2.56;100.00
17525;BME280;40431;52.198;9.902;2024-03-07T05:50:04;101711.97;;;2.57;100.00
17525;BME280;40431;52.198;9.902;2024-03-07T05:52:34;101710.16;;;2.59;100.00
17525;BME280;40431;52.198;9.902;2024-03-07T05:55:00;101716.44;;;2.56;100.00
17525;BME280;40431;52.198;9.902;2024-03-07T05:57:27;101716.47;;;2.53;100.00
17525;BME280;40431;52.198;9.902;2024-03-07T05:59:53;101717.34;;;2.57;100.00
17525;BME280;40431;52.198;9.902;2024-03-07T06:02:22;101711.97;;;2.57;100.00
17525;BME280;40431;52.198;9.902;2024-03-07T06:04:49;101720.88;;;2.59;100.00
17525;BME280;40431;52.198;9.902;2024-03-07T06:07:16;101719.06;;;2.61;100.00
17525;BME280;40431;52.198;9.902;2024-03-07T06:09:42;101712.03;;;2.50;100.00
17525;BME280;40431;52.198;9.902;2024-03-07T06:12:09;101713.88;;;2.42;100.00
17525;BME280;40431;52.198;9.902;2024-03-07T06:14:35;101710.28;;;2.43;100.00
17525;BME280;40431;52.198;9.902;2024-03-07T06:17:02;101721.91;;;2.44;100.00
17525;BME280;40431;52.198;9.902;2024-03-07T06:19:28;101719.19;;;2.45;100.00
17525;BME280;40431;52.198;9.902;2024-03-07T06:21:57;101725.41;;;2.50;100.00
17525;BME280;40431;52.198;9.902;2024-03-07T06:24:24;101724.53;;;2.48;100.00
17525;BME280;40431;52.198;9.902;2024-03-07T06:26:52;101731.63;;;2.53;100.00
17525;BME280;40431;52.198;9.902;2024-03-07T06:29:25;101728.97;;;2.54;100.00
17525;BME280;40431;52.198;9.902;2024-03-07T06:31:53;101731.63;;;2.56;100.00
17525;BME280;40431;52.198;9.902;2024-03-07T06:34:20;101724.44;;;2.58;100.00
17525;BME280;40431;52.198;9.902;2024-03-07T06:36:46;101738.72;;;2.60;100.00
17525;BME280;40431;52.198;9.902;2024-03-07T06:39:14;101739.59;;;2.59;100.00
17525;BME280;40431;52.198;9.902;2024-03-07T06:41:40;101730.66;;;2.61;100.00
17525;BME280;40431;52.198;9.902;2024-03-07T06:44:07;101737.81;;;2.61;100.00
17525;BME280;40431;52.198;9.902;2024-03-07T06:46:34;101733.38;;;2.60;100.00
17525;BME280;40431;52.198;9.902;2024-03-07T06:49:01;101727.19;;;2.52;100.00
17525;BME280;40431;52.198;9.902;2024-03-07T06:51:27;101730.75;;;2.52;100.00
17525;BME280;40431;52.198;9.902;2024-03-07T06:53:54;101730.72;;;2.54;100.00
17525;BME280;40431;52.198;9.902;2024-03-07T06:56:22;101736.09;;;2.52;100.00
17525;BME280;40431;52.198;9.902;2024-03-07T06:58:49;101738.75;;;2.54;100.00
17525;BME280;40431;52.198;9.902;2024-03-07T07:01:15;101743.22;;;2.55;100.00
17525;BME280;40431;52.198;9.902;2024-03-07T07:03:43;101738.78;;;2.50;100.00
17525;BME280;40431;52.198;9.902;2024-03-07T07:06:11;101733.47;;;2.44;100.00
17525;BME280;40431;52.198;9.902;2024-03-07T07:08:37;101734.38;;;2.45;100.00
17525;BME280;40431;52.198;9.902;2024-03-07T07:11:04;101734.34;;;2.49;100.00
17525;BME280;40431;52.198;9.902;2024-03-07T07:13:32;101746.78;;;2.55;100.00
17525;BME280;40431;52.198;9.902;2024-03-07T07:15:59;101748.53;;;2.58;100.00
17525;BME280;40431;52.198;9.902;2024-03-07T07:18:26;101742.28;;;2.59;100.00
17525;BME280;40431;52.198;9.902;2024-03-07T07:20:52;101741.44;;;2.52;100.00
17525;BME280;40431;52.198;9.902;2024-03-07T07:23:19;101740.50;;;2.58;100.00
17525;BME280;40431;52.198;9.902;2024-03-07T07:25:46;101738.72;;;2.60;100.00
17525;BME280;40431;52.198;9.902;2024-03-07T07:28:13;101737.84;;;2.56;100.00
17525;BME280;40431;52.198;9.902;2024-03-07T07:30:42;101733.38;;;2.55;100.00
17525;BME280;40431;52.198;9.902;2024-03-07T07:33:08;101735.19;;;2.55;100.00
17525;BME280;40431;52.198;9.902;2024-03-07T07:35:35;101739.56;;;2.62;100.00
17525;BME280;40431;52.198;9.902;2024-03-07T07:38:02;101739.56;;;2.65;100.00
17525;BME280;40431;52.198;9.902;2024-03-07T07:40:28;101740.41;;;2.68;100.00
17525;BME280;40431;52.198;9.902;2024-03-07T07:42:56;101743.09;;;2.70;100.00
17525;BME280;40431;52.198;9.902;2024-03-07T07:45:23;101740.38;;;2.73;100.00
17525;BME280;40431;52.198;9.902;2024-03-07T07:47:52;101743.00;;;2.78;100.00
17525;BME280;40431;52.198;9.902;2024-03-07T07:50:20;101731.34;;;2.83;100.00
17525;BME280;40431;52.198;9.902;2024-03-07T07:52:48;101739.38;;;2.85;100.00
17525;BME280;40431;52.198;9.902;2024-03-07T07:55:15;101730.38;;;2.91;100.00
17525;BME280;40431;52.198;9.902;2024-03-07T07:57:42;101734.88;;;2.89;100.00
17525;BME280;40431;52.198;9.902;2024-03-07T08:00:12;101736.63;;;2.93;100.00
17525;BME280;40431;52.198;9.902;2024-03-07T08:02:52;101724.06;;;2.95;100.00
17525;BME280;40431;52.198;9.902;2024-03-07T08:05:24;101726.69;;;3.01;100.00
17525;BME280;40431;52.198;9.902;2024-03-07T08:08:00;101722.22;;;3.01;100.00
17525;BME280;40431;52.198;9.902;2024-03-07T08:10:33;101726.63;;;3.06;100.00
17525;BME280;40431;52.198;9.902;2024-03-07T08:13:07;101727.50;;;3.09;100.00
17525;BME280;40431;52.198;9.902;2024-03-07T08:15:45;101723.00;;;3.13;100.00
17525;BME280;40431;52.198;9.902;2024-03-07T08:18:17;101727.34;;;3.22;100.00
17525;BME280;40431;52.198;9.902;2024-03-07T08:20:51;101729.13;;;3.26;100.00
17525;BME280;40431;52.198;9.902;2024-03-07T08:26:09;101718.28;;;3.35;100.00
17525;BME280;40431;52.198;9.902;2024-03-07T08:28:38;101720.91;;;3.38;100.00
17525;BME280;40431;52.198;9.902;2024-03-07T08:31:07;101733.34;;;3.44;100.00
17525;BME280;40431;52.198;9.902;2024-03-07T08:33:38;101730.56;;;3.51;100.00
17525;BME280;40431;52.198;9.902;2024-03-07T08:36:20;101727.00;;;3.53;100.00
17525;BME280;40431;52.198;9.902;2024-03-07T08:38:54;101719.84;;;3.51;100.00
17525;BME280;40431;52.198;9.902;2024-03-07T08:41:48;101716.28;;;3.53;100.00
17525;BME280;40431;52.198;9.902;2024-03-07T08:44:19;101718.91;;;3.56;100.00
17525;BME280;40431;52.198;9.902;2024-03-07T08:46:47;101719.69;;;3.64;100.00
17525;BME280;40431;52.198;9.902;2024-03-07T08:49:23;101712.53;;;3.63;100.00
17525;BME280;40431;52.198;9.902;2024-03-07T08:51:52;101707.13;;;3.67;100.00
17525;BME280;40431;52.198;9.902;2024-03-07T08:54:22;101719.53;;;3.76;100.00
17525;BME280;40431;52.198;9.902;2024-03-07T08:57:00;101720.31;;;3.83;100.00
17525;BME280;40431;52.198;9.902;2024-03-07T08:59:31;101717.56;;;3.88;100.00
17525;BME280;40431;52.198;9.902;2024-03-07T09:02:05;101714.81;;;3.94;100.00
17525;BME280;40431;52.198;9.902;2024-03-07T09:04:44;101719.16;;;4.01;100.00
17525;BME280;40431;52.198;9.902;2024-03-07T09:07:36;101719.91;;;4.09;100.00
17525;BME280;40431;52.198;9.902;2024-03-07T09:10:10;101718.06;;;4.14;100.00
17525;BME280;40431;52.198;9.902;2024-03-07T09:12:40;101726.03;;;4.21;100.00
17525;BME280;40431;52.198;9.902;2024-03-07T09:15:21;101710.91;;;4.15;100.00
17525;BME280;40431;52.198;9.902;2024-03-07T09:18:08;101709.97;;;4.17;100.00
17525;BME280;40431;52.198;9.902;2024-03-07T09:23:46;101705.31;;;4.27;100.00
17525;BME280;40431;52.198;9.902;2024-03-07T09:26:14;101707.97;;;4.29;100.00
17525;BME280;40431;52.198;9.902;2024-03-07T09:28:43;101715.00;;;4.38;100.00
17525;BME280;40431;52.198;9.902;2024-03-07T09:31:15;101711.25;;;4.49;100.00
17525;BME280;40431;52.198;9.902;2024-03-07T09:33:50;101709.34;;;4.53;100.00
17525;BME280;40431;52.198;9.902;2024-03-07T09:36:25;101707.44;;;4.60;100.00
17525;BME280;40431;52.198;9.902;2024-03-07T09:38:53;101707.41;;;4.63;100.00
17525;BME280;40431;52.198;9.902;2024-03-07T09:41:21;101702.81;;;4.70;100.00
17525;BME280;40431;52.198;9.902;2024-03-07T09:43:52;101704.53;;;4.74;100.00
17525;BME280;40431;52.198;9.902;2024-03-07T09:46:24;101700.88;;;4.78;100.00
17525;BME280;40431;52.198;9.902;2024-03-07T09:48:59;101701.63;;;4.84;100.00
17525;BME280;40431;52.198;9.902;2024-03-07T09:51:33;101703.47;;;4.82;100.00
17525;BME280;40431;52.198;9.902;2024-03-07T09:54:12;101699.75;;;4.90;100.00
17525;BME280;40431;52.198;9.902;2024-03-07T09:56:56;101702.25;;;4.99;100.00
17525;BME280;40431;52.198;9.902;2024-03-07T09:59:28;101702.00;;;5.11;100.00
17525;BME280;40431;52.198;9.902;2024-03-07T10:02:00;101686.56;;;5.23;100.00
17525;BME280;40431;52.198;9.902;2024-03-07T10:04:30;101687.13;;;5.37;100.00
17525;BME280;40431;52.198;9.902;2024-03-07T10:07:01;101690.50;;;5.48;100.00
17525;BME280;40431;52.198;9.902;2024-03-07T10:09:46;101690.50;;;5.48;100.00
17525;BME280;40431;52.198;9.902;2024-03-07T10:12:15;101689.50;;;5.52;100.00
17525;BME280;40431;52.198;9.902;2024-03-07T10:14:48;101683.28;;;5.50;100.00
17525;BME280;40431;52.198;9.902;2024-03-07T10:17:17;101679.84;;;5.44;100.00
17525;BME280;40431;52.198;9.902;2024-03-07T10:19:52;101685.03;;;5.51;100.00
17525;BME280;40431;52.198;9.902;2024-03-07T10:22:27;101676.13;;;5.49;100.00
17525;BME280;40431;52.198;9.902;2024-03-07T10:25:16;101677.75;;;5.57;100.00
17525;BME280;40431;52.198;9.902;2024-03-07T10:27:53;101679.47;;;5.61;100.00
17525;BME280;40431;52.198;9.902;2024-03-07T10:30:39;101680.19;;;5.67;100.00
17525;BME280;40431;52.198;9.902;2024-03-07T10:33:07;101670.31;;;5.69;100.00
17525;BME280;40431;52.198;9.902;2024-03-07T10:35:38;101673.63;;;5.81;100.00
17525;BME280;40431;52.198;9.902;2024-03-07T10:38:12;101671.63;;;5.91;100.00
17525;BME280;40431;52.198;9.902;2024-03-07T10:40:40;101667.16;;;5.90;100.00
17525;BME280;40431;52.198;9.902;2024-03-07T10:43:11;101672.75;;;5.80;100.00
17525;BME280;40431;52.198;9.902;2024-03-07T10:45:50;101662.97;;;5.76;100.00
17525;BME280;40431;52.198;9.902;2024-03-07T10:48:25;101665.53;;;5.82;100.00
17525;BME280;40431;52.198;9.902;2024-03-07T10:51:13;101666.16;;;5.94;100.00
17525;BME280;40431;52.198;9.902;2024-03-07T10:53:55;101666.09;;;5.95;100.00
17525;BME280;40431;52.198;9.902;2024-03-07T10:56:44;101663.44;;;5.94;100.00
17525;BME280;40431;52.198;9.902;2024-03-07T10:59:24;101660.94;;;5.86;100.00
17525;BME280;40431;52.198;9.902;2024-03-07T11:02:19;101658.16;;;5.91;100.00
17525;BME280;40431;52.198;9.902;2024-03-07T11:04:51;101651.88;;;5.90;100.00
17525;BME280;40431;52.198;9.902;2024-03-07T11:07:22;101656.25;;;5.96;100.00
17525;BME280;40431;52.198;9.902;2024-03-07T11:09:52;101648.13;;;5.97;100.00
17525;BME280;40431;52.198;9.902;2024-03-07T11:12:23;101661.44;;;6.04;100.00
17525;BME280;40431;52.198;9.902;2024-03-07T11:14:54;101649.69;;;6.08;100.00
17525;BME280;40431;52.198;9.902;2024-03-07T11:17:23;101655.03;;;6.09;100.00
17525;BME280;40431;52.198;9.902;2024-03-07T11:19:51;101645.97;;;6.13;100.00
17525;BME280;40431;52.198;9.902;2024-03-07T11:22:31;101640.44;;;6.20;100.00
17525;BME280;40431;52.198;9.902;2024-03-07T11:25:02;101643.03;;;6.23;100.00
17525;BME280;40431;52.198;9.902;2024-03-07T11:27:32;101632.19;;;6.26;100.00
17525;BME280;40431;52.198;9.902;2024-03-07T11:30:04;101629.63;;;6.21;100.00
17525;BME280;40431;52.198;9.902;2024-03-07T11:32:34;101631.25;;;6.27;100.00
17525;BME280;40431;52.198;9.902;2024-03-07T11:35:04;101625.16;;;6.20;100.00
17525;BME280;40431;52.198;9.902;2024-03-07T11:37:39;101624.34;;;6.16;100.00
17525;BME280;40431;52.198;9.902;2024-03-07T11:40:14;101618.25;;;6.08;100.00
17525;BME280;40431;52.198;9.902;2024-03-07T11:43:01;101623.31;;;6.21;100.00
17525;BME280;40431;52.198;9.902;2024-03-07T11:45:30;101620.53;;;6.25;100.00
17525;BME280;40431;52.198;9.902;2024-03-07T11:47:59;101623.19;;;6.27;100.00
17525;BME280;40431;52.198;9.902;2024-03-07T11:50:33;101614.09;;;6.31;100.00
17525;BME280;40431;52.198;9.902;2024-03-07T11:53:03;101610.53;;;6.29;100.00
17525;BME280;40431;52.198;9.902;2024-03-07T11:55:41;101610.53;;;6.29;100.00
17525;BME280;40431;52.198;9.902;2024-03-07T11:58:21;101606.09;;;6.28;100.00
17525;BME280;40431;52.198;9.902;2024-03-07T12:00:51;101606.09;;;6.28;100.00
17525;BME280;40431;52.198;9.902;2024-03-07T12:03:20;101605.00;;;6.35;100.00
17525;BME280;40431;52.198;9.902;2024-03-07T12:05:49;101604.03;;;6.38;100.00
17525;BME280;40431;52.198;9.902;2024-03-07T12:08:18;101592.97;;;6.48;100.00
17525;BME280;40431;52.198;9.902;2024-03-07T12:10:48;101595.34;;;6.61;100.00
17525;BME280;40431;52.198;9.902;2024-03-07T12:13:21;101589.72;;;6.68;100.00
17525;BME280;40431;52.198;9.902;2024-03-07T12:15:51;101593.38;;;6.66;100.00
17525;BME280;40431;52.198;9.902;2024-03-07T12:18:21;101579.13;;;6.62;100.00
17525;BME280;40431;52.198;9.902;2024-03-07T12:20:50;101571.34;;;6.50;100.00
17525;BME280;40431;52.198;9.902;2024-03-07T12:23:22;101569.63;;;6.47;100.00
17525;BME280;40431;52.198;9.902;2024-03-07T12:25:59;101570.75;;;6.40;100.00
17525;BME280;40431;52.198;9.902;2024-03-07T12:28:30;101568.06;;;6.40;100.00
17525;BME280;40431;52.198;9.902;2024-03-07T12:30:59;101572.59;;;6.38;100.00
17525;BME280;40431;52.198;9.902;2024-03-07T12:33:30;101574.44;;;6.36;100.00
17525;BME280;40431;52.198;9.902;2024-03-07T12:36:05;101568.91;;;6.42;100.00
17525;BME280;40431;52.198;9.902;2024-03-07T12:38:34;101566.38;;;6.36;100.00
17525;BME280;40431;52.198;9.902;2024-03-07T12:41:06;101569.88;;;6.40;100.00
17525;BME280;40431;52.198;9.902;2024-03-07T12:43:42;101565.19;;;6.46;100.00
17525;BME280;40431;52.198;9.902;2024-03-07T12:46:12;101565.00;;;6.52;100.00
17525;BME280;40431;52.198;9.902;2024-03-07T12:48:41;101572.00;;;6.60;100.00
17525;BME280;40431;52.198;9.902;2024-03-07T12:51:11;101560.22;;;6.64;100.00
17525;BME280;40431;52.198;9.902;2024-03-07T12:53:42;101562.75;;;6.70;100.00
17525;BME280;40431;52.198;9.902;2024-03-07T12:56:10;101559.72;;;6.81;100.00
17525;BME280;40431;52.198;9.902;2024-03-07T12:58:43;101560.22;;;6.94;100.00
17525;BME280;40431;52.198;9.902;2024-03-07T13:01:11;101550.94;;;7.04;100.00
17525;BME280;40431;52.198;9.902;2024-03-07T13:03:46;101557.84;;;7.14;100.00
17525;BME280;40431;52.198;9.902;2024-03-07T13:06:15;101543.97;;;6.97;100.00
17525;BME280;40431;52.198;9.902;2024-03-07T13:08:48;101548.84;;;6.84;100.00
17525;BME280;40431;52.198;9.902;2024-03-07T13:11:19;101538.13;;;6.82;100.00
17525;BME280;40431;52.198;9.902;2024-03-07T13:13:52;101545.28;;;6.83;100.00